createdAt,value
2023-03-28T00:00:35.642Z,-3.88
2023-03-28T00:04:53.430Z,-3.95
2023-03-28T00:09:30.295Z,-3.98
2023-03-28T00:14:09.278Z,-3.97
2023-03-28T00:18:53.101Z,-3.91
2023-03-28T00:23:36.861Z,-3.80
2023-03-28T00:28:01.102Z,-3.68
2023-03-28T00:31:53.124Z,-3.51
2023-03-28T00:36:36.969Z,-3.31
2023-03-28T00:40:28.673Z,-3.11
2023-03-28T00:44:41.680Z,-2.98
2023-03-28T00:49:09.255Z,-2.82
2023-03-28T00:53:51.455Z,-2.70
2023-03-28T00:58:16.014Z,-2.59
2023-03-28T01:03:00.003Z,-2.46
2023-03-28T01:07:38.980Z,-2.31
2023-03-28T01:12:06.621Z,-2.21
2023-03-28T01:16:34.208Z,-2.12
2023-03-28T01:21:09.871Z,-2.07
2023-03-28T01:25:42.716Z,-2.00
2023-03-28T01:30:13.054Z,-1.95
2023-03-28T01:34:52.170Z,-1.90
2023-03-28T01:39:24.686Z,-1.84
2023-03-28T01:44:05.694Z,-1.79
2023-03-28T01:48:36.127Z,-1.74
2023-03-28T01:53:19.939Z,-1.69
2023-03-28T02:01:25.064Z,-1.59
2023-03-28T02:06:09.062Z,-1.57
2023-03-28T02:10:40.617Z,-1.58
2023-03-28T02:15:10.311Z,-1.56
2023-03-28T02:19:49.708Z,-1.56
2023-03-28T02:24:10.280Z,-1.55
2023-03-28T02:28:35.971Z,-1.52
2023-03-28T02:33:19.771Z,-1.49
2023-03-28T02:37:50.687Z,-1.48
2023-03-28T02:42:23.672Z,-1.47
2023-03-28T02:47:16.623Z,-1.46
2023-03-28T02:52:03.387Z,-1.48
2023-03-28T02:56:25.079Z,-1.46
2023-03-28T03:01:09.568Z,-1.44
2023-03-28T03:05:53.627Z,-1.43
2023-03-28T03:10:33.089Z,-1.42
2023-03-28T03:15:04.710Z,-1.42
2023-03-28T03:19:29.288Z,-1.43
2023-03-28T03:23:50.566Z,-1.45
2023-03-28T03:28:16.650Z,-1.47
2023-03-28T03:32:48.592Z,-1.48
2023-03-28T03:37:32.359Z,-1.46
2023-03-28T03:42:16.149Z,-1.45
2023-03-28T03:46:59.969Z,-1.44
2023-03-28T03:51:43.821Z,-1.45
2023-03-28T03:55:55.704Z,-1.51
2023-03-28T04:00:21.864Z,-1.57
2023-03-28T04:04:09.451Z,-1.58
2023-03-28T04:08:13.043Z,-1.57
2023-03-28T04:12:57.309Z,-1.57
2023-03-28T04:17:07.352Z,-1.57
2023-03-28T04:21:31.975Z,-1.56
2023-03-28T04:26:14.596Z,-1.54
2023-03-28T04:30:34.891Z,-1.46
2023-03-28T04:34:39.278Z,-1.41
2023-03-28T04:39:03.783Z,-1.35
2023-03-28T04:43:50.401Z,-1.31
2023-03-28T04:48:10.473Z,-1.25
2023-03-28T04:52:35.754Z,-1.19
2023-03-28T04:57:19.867Z,-1.13
2023-03-28T05:01:24.592Z,-1.12
2023-03-28T05:06:04.907Z,-1.10
2023-03-28T05:10:30.112Z,-1.05
2023-03-28T05:14:32.278Z,-1.08
2023-03-28T05:18:38.748Z,-1.07
2023-03-28T05:23:23.110Z,-1.00
2023-03-28T05:27:49.264Z,-0.84
2023-03-28T05:32:28.437Z,-0.66
2023-03-28T05:36:40.625Z,-0.51
2023-03-28T05:41:08.766Z,-0.46
2023-03-28T05:45:50.026Z,-0.37
2023-03-28T05:50:26.861Z,-0.41
2023-03-28T05:54:31.437Z,-0.45
2023-03-28T05:58:57.497Z,-0.39
2023-03-28T06:03:37.974Z,-0.39
2023-03-28T06:07:44.239Z,-0.46
2023-03-28T06:12:28.021Z,-0.58
2023-03-28T06:17:07.204Z,-1.06
2023-03-28T06:21:31.276Z,-1.18
2023-03-28T06:25:35.146Z,-0.88
2023-03-28T06:29:59.478Z,-0.58
2023-03-28T06:34:20.912Z,-0.46
2023-03-28T06:38:44.650Z,-0.42
2023-03-28T06:43:09.143Z,-0.56
2023-03-28T06:47:36.957Z,-0.91
2023-03-28T06:52:20.990Z,-0.88
2023-03-28T06:57:00.172Z,-0.40
2023-03-28T07:01:44.032Z,-0.43
2023-03-28T07:06:07.827Z,-0.59
2023-03-28T07:10:51.590Z,-0.59
2023-03-28T07:15:35.262Z,-0.58
2023-03-28T07:20:06.651Z,-0.44
2023-03-28T07:24:12.570Z,-0.35
2023-03-28T07:28:56.792Z,-0.02
2023-03-28T07:33:18.405Z,-0.14
2023-03-28T07:37:23.759Z,-0.15
2023-03-28T07:41:55.141Z,0.38
2023-03-28T07:46:37.407Z,0.51
2023-03-28T07:51:01.287Z,0.33
2023-03-28T07:55:54.529Z,0.33
2023-03-28T08:00:25.414Z,0.18
2023-03-28T08:05:09.548Z,0.48
2023-03-28T08:09:06.611Z,0.39
2023-03-28T08:13:12.796Z,0.34
2023-03-28T08:17:57.435Z,1.00
2023-03-28T08:22:17.629Z,0.95
2023-03-28T08:26:41.587Z,1.21
2023-03-28T08:30:45.421Z,0.79
2023-03-28T08:35:16.888Z,0.44
2023-03-28T08:39:28.752Z,0.20
2023-03-28T08:44:07.384Z,0.30
2023-03-28T08:48:47.884Z,0.72
2023-03-28T08:52:51.877Z,1.13
2023-03-28T08:57:17.150Z,1.24
2023-03-28T09:02:00.970Z,1.06
2023-03-28T09:06:30.809Z,0.85
2023-03-28T09:11:03.225Z,1.21
2023-03-28T09:15:36.587Z,1.40
2023-03-28T09:20:19.859Z,1.58
2023-03-28T09:24:56.028Z,1.67
2023-03-28T09:33:04.860Z,1.88
2023-03-28T09:37:28.112Z,1.40
2023-03-28T09:41:55.310Z,1.37
2023-03-28T09:46:15.535Z,1.81
2023-03-28T09:50:20.414Z,2.06
2023-03-28T09:54:28.059Z,2.40
2023-03-28T09:58:43.082Z,2.14
2023-03-28T10:02:45.483Z,2.29
2023-03-28T10:07:28.135Z,2.13
2023-03-28T10:11:56.340Z,2.25
2023-03-28T10:16:11.107Z,2.16
2023-03-28T10:20:17.828Z,1.92
2023-03-28T10:24:42.560Z,1.62
2023-03-28T10:29:30.965Z,1.34
2023-03-28T10:33:56.960Z,0.36
2023-03-28T10:38:22.636Z,0.27
2023-03-28T10:42:29.233Z,0.77
2023-03-28T10:46:53.356Z,1.46
2023-03-28T10:50:56.690Z,2.18
2023-03-28T10:55:51.788Z,2.52
2023-03-28T11:00:44.446Z,2.22
2023-03-28T11:05:32.913Z,2.13
2023-03-28T11:10:11.232Z,2.53
2023-03-28T11:14:42.576Z,3.01
2023-03-28T11:19:29.860Z,3.04
2023-03-28T11:24:03.889Z,2.10
2023-03-28T11:28:30.443Z,0.58
2023-03-28T11:32:36.750Z,0.20
2023-03-28T11:36:54.504Z,0.56
2023-03-28T11:41:31.203Z,1.16
2023-03-28T11:45:52.464Z,1.81
2023-03-28T11:50:39.384Z,2.75
2023-03-28T11:55:11.954Z,3.23
2023-03-28T11:59:32.259Z,3.25
2023-03-28T12:03:37.463Z,3.39
2023-03-28T12:08:17.038Z,3.51
2023-03-28T12:12:33.760Z,3.37
2023-03-28T12:17:06.337Z,2.49
2023-03-28T12:21:51.071Z,1.12
2023-03-28T12:26:16.811Z,1.05
2023-03-28T12:30:56.623Z,1.38
2023-03-28T12:35:32.374Z,1.00
2023-03-28T12:39:59.882Z,1.32
2023-03-28T12:44:29.029Z,1.69
2023-03-28T12:49:12.765Z,1.72
2023-03-28T12:53:36.295Z,1.77
2023-03-28T12:58:20.222Z,1.77
2023-03-28T13:03:01.930Z,1.72
2023-03-28T13:07:55.028Z,2.03
2023-03-28T13:12:20.445Z,2.65
2023-03-28T13:16:43.374Z,2.67
2023-03-28T13:21:22.321Z,2.87
2023-03-28T13:25:27.041Z,2.77
2023-03-28T13:29:58.511Z,2.59
2023-03-28T13:34:37.596Z,2.52
2023-03-28T13:39:14.339Z,2.07
2023-03-28T13:43:25.077Z,2.15
2023-03-28T13:47:47.557Z,1.71
2023-03-28T13:52:11.158Z,1.10
2023-03-28T13:56:46.869Z,0.70
2023-03-28T14:00:54.676Z,0.45
2023-03-28T14:05:07.408Z,0.43
2023-03-28T14:09:33.109Z,0.38
2023-03-28T14:14:18.064Z,0.44
2023-03-28T14:18:40.926Z,0.26
2023-03-28T14:23:08.063Z,0.87
2023-03-28T14:27:31.130Z,1.56
2023-03-28T14:31:50.462Z,2.07
2023-03-28T14:35:55.238Z,2.20
2023-03-28T14:40:21.979Z,1.87
2023-03-28T14:44:44.554Z,1.54
2023-03-28T14:49:14.078Z,1.22
2023-03-28T14:53:19.425Z,0.95
2023-03-28T14:57:29.845Z,0.96
2023-03-28T15:01:41.099Z,0.88
2023-03-28T15:05:47.243Z,0.50
2023-03-28T15:10:28.222Z,0.50
2023-03-28T15:15:10.471Z,0.82
2023-03-28T15:19:40.033Z,1.08
2023-03-28T15:23:54.055Z,1.32
2023-03-28T15:28:26.735Z,1.38
2023-03-28T15:32:53.245Z,1.35
2023-03-28T15:36:59.770Z,1.53
2023-03-28T15:41:25.182Z,1.48
2023-03-28T15:45:49.913Z,1.34
2023-03-28T15:50:02.911Z,1.35
2023-03-28T15:54:31.446Z,1.23
2023-03-28T15:58:34.944Z,1.20
2023-03-28T16:03:19.842Z,1.02
2023-03-28T16:07:24.608Z,0.83
2023-03-28T16:11:45.278Z,0.72
2023-03-28T16:16:23.940Z,0.41
2023-03-28T16:20:49.735Z,-0.05
2023-03-28T16:25:18.954Z,-0.57
2023-03-28T16:38:31.529Z,-0.95
2023-03-28T16:43:17.345Z,-1.09
2023-03-28T16:47:58.356Z,-1.13
2023-03-28T16:52:44.650Z,-1.22
2023-03-28T16:57:28.820Z,-1.39
2023-03-28T17:01:55.440Z,-1.48
2023-03-28T17:06:21.505Z,-1.51
2023-03-28T17:11:06.471Z,-1.48
2023-03-28T17:15:48.120Z,-1.43
2023-03-28T17:20:32.652Z,-1.36
2023-03-28T17:24:52.512Z,-1.35
2023-03-28T17:29:17.857Z,-1.33
2023-03-28T17:33:38.101Z,-1.24
2023-03-28T17:38:00.060Z,-1.18
2023-03-28T17:42:21.805Z,-1.20
2023-03-28T17:47:06.005Z,-1.43
2023-03-28T17:51:16.488Z,-1.63
2023-03-28T17:55:44.560Z,-1.73
2023-03-28T18:00:17.866Z,-1.77
2023-03-28T18:04:32.387Z,-1.84
2023-03-28T18:09:17.582Z,-2.04
2023-03-28T18:14:03.325Z,-2.28
2023-03-28T18:18:35.255Z,-2.49
2023-03-28T18:22:44.139Z,-2.69
2023-03-28T18:26:41.608Z,-2.77
2023-03-28T18:31:06.101Z,-2.90
2023-03-28T18:35:38.726Z,-3.07
2023-03-28T18:39:30.625Z,-3.21
2023-03-28T18:43:44.701Z,-3.36
2023-03-28T18:48:28.912Z,-3.51
2023-03-28T18:52:58.397Z,-3.63
2023-03-28T19:01:57.914Z,-3.87
2023-03-28T19:06:31.440Z,-3.91
2023-03-28T19:10:59.792Z,-3.84
2023-03-28T19:15:25.298Z,-3.76
2023-03-28T19:19:48.027Z,-3.72
2023-03-28T19:24:10.976Z,-3.79
2023-03-28T19:28:14.617Z,-3.93
2023-03-28T19:32:57.462Z,-4.13
2023-03-28T19:37:01.910Z,-4.29
2023-03-28T19:41:10.764Z,-4.44
2023-03-28T19:45:52.111Z,-4.62
2023-03-28T19:50:15.124Z,-4.77
2023-03-28T19:54:40.139Z,-4.94
2023-03-28T19:59:03.157Z,-5.06
2023-03-28T20:03:06.261Z,-5.14
2023-03-28T20:07:18.154Z,-5.18
2023-03-28T20:11:47.305Z,-5.21
2023-03-28T20:16:09.737Z,-5.26
2023-03-28T20:20:32.453Z,-5.28
2023-03-28T20:24:44.090Z,-5.30
2023-03-28T20:28:47.886Z,-5.32
2023-03-28T20:33:14.372Z,-5.35
2023-03-28T20:37:41.103Z,-5.33
2023-03-28T20:42:12.133Z,-5.35
2023-03-28T20:46:55.465Z,-5.35
2023-03-28T20:51:18.063Z,-5.38
2023-03-28T20:55:36.695Z,-5.47
2023-03-28T20:59:43.251Z,-5.56
2023-03-28T21:04:07.191Z,-5.60
2023-03-28T21:08:31.659Z,-5.60
2023-03-28T21:12:51.584Z,-5.58
2023-03-28T21:17:17.981Z,-5.63
2023-03-28T21:21:23.026Z,-5.70
2023-03-28T21:25:30.358Z,-5.79
2023-03-28T21:30:01.198Z,-5.87
2023-03-28T21:34:23.936Z,-5.94
2023-03-28T21:38:23.278Z,-5.96
2023-03-28T21:43:01.607Z,-5.91
2023-03-28T21:47:28.018Z,-5.89
2023-03-28T21:52:10.315Z,-5.91
2023-03-28T21:56:15.142Z,-5.93
2023-03-28T22:00:39.709Z,-5.93
2023-03-28T22:04:44.285Z,-5.89
2023-03-28T22:09:26.647Z,-5.89
2023-03-28T22:14:05.544Z,-5.92
2023-03-28T22:18:13.818Z,-5.98
2023-03-28T22:22:23.767Z,-6.05
2023-03-28T22:26:43.742Z,-6.22
2023-03-28T22:31:19.138Z,-6.47
2023-03-28T22:35:22.471Z,-6.67
2023-03-28T22:39:45.242Z,-6.85
2023-03-28T22:44:16.711Z,-6.99
2023-03-28T22:48:27.453Z,-7.10
2023-03-28T22:52:30.801Z,-7.19
2023-03-28T23:03:41.920Z,-7.39
2023-03-28T23:07:53.117Z,-7.49
2023-03-28T23:12:03.410Z,-7.56
2023-03-28T23:16:08.493Z,-7.64
2023-03-28T23:20:26.701Z,-7.72
2023-03-28T23:24:27.155Z,-7.80
2023-03-28T23:28:31.760Z,-7.87
2023-03-28T23:32:13.422Z,-7.91
2023-03-28T23:36:16.187Z,-7.91
2023-03-28T23:40:40.058Z,-7.88
2023-03-28T23:44:44.170Z,-7.88
2023-03-28T23:48:55.200Z,-7.90
2023-03-28T23:53:38.260Z,-7.97
2023-03-28T23:57:42.773Z,-8.00
